createdAt,value
2022-08-17T00:00:05.305Z,15.40
2022-08-17T00:00:34.294Z,15.30
2022-08-17T00:00:42.639Z,15.10
2022-08-17T00:00:49.594Z,14.90
2022-08-17T00:00:51.686Z,14.90
2022-08-17T00:00:58.282Z,15.60
2022-08-17T00:01:08.568Z,15.60
2022-08-17T00:01:18.613Z,15.60
2022-08-17T00:01:28.587Z,15.10
2022-08-17T00:01:52.246Z,15.00
2022-08-17T00:01:52.277Z,14.90
2022-08-17T00:01:59.899Z,15.00
2022-08-17T00:02:15.300Z,15.20
2022-08-17T00:02:26.984Z,15.10
2022-08-17T00:02:32.803Z,15.20
2022-08-17T00:02:43.686Z,15.60
2022-08-17T00:02:53.831Z,15.10
2022-08-17T00:03:03.785Z,14.70
2022-08-17T00:03:14.524Z,15.20
2022-08-17T00:03:23.887Z,15.50
2022-08-17T00:03:33.948Z,15.70
2022-08-17T00:03:43.976Z,15.00
2022-08-17T00:03:54.025Z,15.20
2022-08-17T00:04:06.922Z,15.10
2022-08-17T00:04:15.026Z,15.10
2022-08-17T00:04:25.056Z,14.90
2022-08-17T00:04:35.158Z,14.60
2022-08-17T00:04:50.318Z,15.00
2022-08-17T00:04:56.158Z,15.20
2022-08-17T00:05:06.266Z,15.30
2022-08-17T00:05:16.367Z,15.00
2022-08-17T00:05:26.467Z,15.20
2022-08-17T00:05:36.556Z,15.50
2022-08-17T00:05:46.635Z,15.70
2022-08-17T00:05:56.728Z,15.90
2022-08-17T00:06:06.807Z,15.80
2022-08-17T00:06:16.895Z,15.80
2022-08-17T00:06:26.976Z,15.40
2022-08-17T00:06:37.055Z,15.40
2022-08-17T00:06:48.662Z,14.80
2022-08-17T00:06:57.255Z,14.80
2022-08-17T00:07:07.206Z,14.70
2022-08-17T00:07:17.280Z,14.60
2022-08-17T00:07:27.369Z,15.00
2022-08-17T00:07:37.467Z,15.20
2022-08-17T00:07:47.606Z,15.50
2022-08-17T00:07:57.667Z,15.30
2022-08-17T00:08:07.786Z,15.20
2022-08-17T00:08:17.867Z,15.50
2022-08-17T00:08:28.008Z,15.30
2022-08-17T00:08:38.096Z,14.70
2022-08-17T00:08:48.167Z,14.40
2022-08-17T00:08:58.257Z,15.10
2022-08-17T00:09:08.366Z,15.50
2022-08-17T00:09:19.346Z,15.00
2022-08-17T00:09:28.577Z,14.80
2022-08-17T00:09:38.686Z,14.30
2022-08-17T00:09:48.752Z,14.30
2022-08-17T00:09:58.890Z,13.90
2022-08-17T00:10:08.936Z,13.90
2022-08-17T00:10:19.034Z,13.70
2022-08-17T00:10:29.127Z,14.40
2022-08-17T00:10:39.226Z,14.70
2022-08-17T00:10:49.325Z,14.90
2022-08-17T00:10:59.387Z,14.90
2022-08-17T00:11:09.438Z,14.90
2022-08-17T00:11:19.494Z,14.60
2022-08-17T00:11:29.565Z,14.40
2022-08-17T00:11:39.625Z,14.30
2022-08-17T00:12:41.015Z,14.50
2022-08-17T00:12:41.080Z,14.40
2022-08-17T00:12:43.193Z,14.20
2022-08-17T00:12:43.446Z,14.40
2022-08-17T00:12:44.421Z,14.50
2022-08-17T00:12:44.890Z,14.40
2022-08-17T00:12:55.031Z,14.60
2022-08-17T00:13:04.726Z,14.70
2022-08-17T00:13:14.788Z,15.00
2022-08-17T00:13:24.826Z,15.10
2022-08-17T00:13:34.889Z,14.90
2022-08-17T00:13:44.926Z,14.00
2022-08-17T00:13:56.013Z,13.70
2022-08-17T00:14:04.978Z,13.90
2022-08-17T00:14:15.026Z,14.60
2022-08-17T00:14:25.145Z,14.70
2022-08-17T00:14:35.249Z,14.90
2022-08-17T00:14:45.294Z,14.70
2022-08-17T00:14:55.337Z,14.50
2022-08-17T00:15:05.406Z,14.70
2022-08-17T00:15:15.436Z,14.70
2022-08-17T00:15:25.506Z,14.60
2022-08-17T00:15:35.547Z,14.30
2022-08-17T00:15:45.598Z,13.90
2022-08-17T00:15:55.644Z,14.00
2022-08-17T00:16:05.706Z,14.40
2022-08-17T00:16:15.758Z,14.70
2022-08-17T00:16:50.371Z,14.60
2022-08-17T00:16:50.379Z,15.10
2022-08-17T00:16:56.233Z,14.70
2022-08-17T00:16:58.675Z,15.00
2022-08-17T00:17:08.728Z,15.10
2022-08-17T00:17:18.767Z,15.20
2022-08-17T00:17:28.824Z,14.80
2022-08-17T00:17:38.853Z,15.20
2022-08-17T00:17:48.934Z,15.30
2022-08-17T00:17:58.976Z,14.80
2022-08-17T00:19:00.917Z,13.90
2022-08-17T00:19:01.766Z,14.20
2022-08-17T00:19:01.792Z,14.10
2022-08-17T00:19:05.737Z,14.10
2022-08-17T00:19:06.512Z,14.20
2022-08-17T00:19:07.275Z,14.00
2022-08-17T00:19:13.857Z,13.80
2022-08-17T00:19:23.907Z,14.00
2022-08-17T00:19:33.968Z,14.70
2022-08-17T00:19:44.010Z,14.70
2022-08-17T00:19:54.068Z,14.50
2022-08-17T00:20:04.117Z,14.30
2022-08-17T00:20:14.158Z,14.30
2022-08-17T00:20:29.198Z,14.80
2022-08-17T00:20:35.186Z,14.70
2022-08-17T00:20:45.207Z,15.00
2022-08-17T00:20:55.268Z,15.10
2022-08-17T00:21:05.317Z,14.80
2022-08-17T00:21:16.279Z,14.90
2022-08-17T00:21:27.227Z,14.40
2022-08-17T00:22:29.848Z,14.20
2022-08-17T00:22:32.677Z,14.60
2022-08-17T00:22:34.586Z,14.90
2022-08-17T00:22:34.933Z,13.90
2022-08-17T00:22:35.028Z,14.20
2022-08-17T00:22:36.331Z,14.50
2022-08-17T00:22:43.068Z,14.80
2022-08-17T00:22:53.328Z,14.90
2022-08-17T00:23:03.125Z,15.60
2022-08-17T00:23:13.174Z,15.10
2022-08-17T00:23:23.227Z,15.10
2022-08-17T00:23:33.277Z,15.00
2022-08-17T00:23:44.338Z,14.90
2022-08-17T00:23:54.287Z,15.10
2022-08-17T00:24:04.336Z,14.90
2022-08-17T00:24:14.380Z,14.90
2022-08-17T00:24:24.436Z,14.40
2022-08-17T00:24:34.485Z,14.70
2022-08-17T00:24:44.531Z,15.30
2022-08-17T00:24:54.557Z,15.60
2022-08-17T00:25:04.593Z,15.80
2022-08-17T00:25:14.629Z,15.60
2022-08-17T00:25:24.676Z,15.60
2022-08-17T00:25:34.697Z,15.20
2022-08-17T00:25:44.751Z,14.90
2022-08-17T00:25:54.788Z,14.30
2022-08-17T00:26:04.834Z,14.50
2022-08-17T00:26:14.896Z,14.70
2022-08-17T00:26:43.428Z,14.80
2022-08-17T00:26:45.203Z,14.50
2022-08-17T00:26:47.765Z,14.40
2022-08-17T00:26:57.806Z,14.20
2022-08-17T00:27:07.859Z,14.10
2022-08-17T00:27:17.920Z,13.80
2022-08-17T00:27:27.985Z,14.30
2022-08-17T00:27:38.037Z,14.60
2022-08-17T00:27:48.096Z,14.90
2022-08-17T00:27:58.187Z,14.60
2022-08-17T00:28:08.247Z,14.50
2022-08-17T00:28:18.277Z,15.10
2022-08-17T00:28:28.367Z,14.90
2022-08-17T00:28:38.520Z,15.00
2022-08-17T00:28:48.517Z,14.60
2022-08-17T00:28:58.579Z,14.80
2022-08-17T00:29:08.626Z,14.60
2022-08-17T00:29:19.937Z,14.70
2022-08-17T00:29:28.774Z,15.10
2022-08-17T00:29:38.811Z,15.00
2022-08-17T00:29:48.866Z,14.60
2022-08-17T00:29:58.910Z,15.40
2022-08-17T00:30:08.957Z,15.60
2022-08-17T00:30:19.037Z,15.80
2022-08-17T00:30:29.087Z,14.90
2022-08-17T00:30:52.914Z,14.70
2022-08-17T00:30:53.149Z,14.90
2022-08-17T00:31:00.207Z,14.40
2022-08-17T00:31:10.300Z,14.60
2022-08-17T00:31:20.364Z,14.60
2022-08-17T00:31:30.425Z,14.40
2022-08-17T00:31:40.491Z,14.40
2022-08-17T00:31:50.546Z,15.00
2022-08-17T00:32:00.596Z,15.30
2022-08-17T00:33:11.582Z,15.40
2022-08-17T00:33:13.761Z,15.30
2022-08-17T00:33:13.838Z,14.80
2022-08-17T00:33:15.012Z,14.80
2022-08-17T00:33:15.709Z,15.50
2022-08-17T00:33:17.312Z,15.20
2022-08-17T00:33:23.006Z,14.60
2022-08-17T00:33:27.608Z,15.60
2022-08-17T00:33:37.366Z,15.60
2022-08-17T00:33:47.420Z,15.20
2022-08-17T00:33:57.486Z,15.50
2022-08-17T00:34:07.536Z,15.30
2022-08-17T00:34:17.585Z,15.20
2022-08-17T00:34:28.010Z,15.20
2022-08-17T00:34:37.738Z,15.70
2022-08-17T00:34:47.787Z,15.80
2022-08-17T00:34:57.828Z,16.50
2022-08-17T00:35:07.887Z,15.80
2022-08-17T00:35:17.956Z,15.50
2022-08-17T00:35:28.007Z,15.30
2022-08-17T00:35:38.064Z,15.60
2022-08-17T00:35:48.119Z,15.60
2022-08-17T00:35:58.169Z,15.10
2022-08-17T00:36:08.242Z,15.00
2022-08-17T00:36:18.467Z,15.20
2022-08-17T00:36:28.407Z,15.60
2022-08-17T00:36:38.458Z,15.70
2022-08-17T00:36:48.496Z,15.80
2022-08-17T00:36:58.517Z,16.00
2022-08-17T00:37:08.547Z,15.70
2022-08-17T00:37:18.606Z,15.60
2022-08-17T00:37:28.638Z,15.00
2022-08-17T00:37:38.684Z,15.10
2022-08-17T00:37:48.799Z,15.00
2022-08-17T00:37:58.837Z,15.50
2022-08-17T00:38:08.887Z,15.70
2022-08-17T00:38:18.917Z,16.00
2022-08-17T00:38:28.965Z,15.70
2022-08-17T00:38:38.988Z,16.00
2022-08-17T00:38:49.039Z,15.90
2022-08-17T00:38:59.095Z,16.00
2022-08-17T00:39:09.137Z,15.90
2022-08-17T00:39:19.169Z,15.60
2022-08-17T00:39:29.250Z,15.70
2022-08-17T00:39:39.349Z,15.80
2022-08-17T00:39:49.470Z,16.30
2022-08-17T00:39:59.666Z,15.80
2022-08-17T00:40:09.654Z,15.60
2022-08-17T00:40:19.696Z,15.80
2022-08-17T00:40:39.901Z,16.40
2022-08-17T00:40:44.437Z,16.10
2022-08-17T00:40:51.812Z,16.00
2022-08-17T00:41:00.951Z,15.90
2022-08-17T00:41:10.999Z,16.00
2022-08-17T00:41:21.041Z,15.90
2022-08-17T00:41:31.087Z,16.10
2022-08-17T00:41:42.407Z,16.00
2022-08-17T00:41:51.095Z,15.60
2022-08-17T00:42:01.136Z,15.70
2022-08-17T00:42:11.188Z,15.40
2022-08-17T00:42:21.217Z,16.30
2022-08-17T00:42:31.485Z,16.40
2022-08-17T00:42:41.329Z,16.60
2022-08-17T00:42:51.543Z,16.10
2022-08-17T00:43:01.496Z,15.70
2022-08-17T00:43:11.547Z,15.80
2022-08-17T00:43:21.587Z,15.70
2022-08-17T00:43:31.638Z,16.50
2022-08-17T00:43:41.677Z,16.50
2022-08-17T00:43:51.727Z,16.70
2022-08-17T00:44:01.781Z,15.90
2022-08-17T00:44:11.825Z,15.90
2022-08-17T00:44:21.868Z,15.80
2022-08-17T00:44:32.830Z,16.30
2022-08-17T00:44:42.879Z,15.90
2022-08-17T00:44:52.918Z,15.40
2022-08-17T00:45:02.964Z,15.20
2022-08-17T00:45:13.009Z,15.10
2022-08-17T00:45:23.067Z,15.20
2022-08-17T00:45:33.117Z,15.30
2022-08-17T00:45:43.158Z,15.90
2022-08-17T00:45:53.215Z,16.50
2022-08-17T00:46:03.287Z,16.50
2022-08-17T00:46:13.328Z,16.30
2022-08-17T00:46:23.393Z,16.10
2022-08-17T00:46:33.447Z,15.70
2022-08-17T00:46:43.504Z,15.40
2022-08-17T00:46:53.555Z,15.10
2022-08-17T00:47:03.607Z,15.70
2022-08-17T00:47:13.646Z,15.70
2022-08-17T00:47:23.698Z,15.30
2022-08-17T00:47:33.738Z,16.10
2022-08-17T00:47:43.797Z,16.60
2022-08-17T00:47:53.838Z,17.10
2022-08-17T00:48:03.868Z,16.60
2022-08-17T00:48:29.607Z,16.60
2022-08-17T00:48:30.107Z,16.40
2022-08-17T00:48:35.825Z,16.40
2022-08-17T00:48:45.857Z,16.40
2022-08-17T00:48:55.918Z,16.00
2022-08-17T00:49:05.958Z,16.40
2022-08-17T00:49:16.006Z,16.00
2022-08-17T00:49:26.048Z,15.80
2022-08-17T00:49:36.098Z,14.90
2022-08-17T00:49:46.157Z,14.80
2022-08-17T00:49:56.202Z,14.60
2022-08-17T00:50:06.237Z,15.20
2022-08-17T00:50:16.298Z,15.40
2022-08-17T00:50:26.347Z,16.20
2022-08-17T00:50:36.436Z,16.20
2022-08-17T00:50:46.476Z,16.40
2022-08-17T00:50:56.528Z,15.80
2022-08-17T00:51:06.588Z,15.20
2022-08-17T00:51:16.655Z,14.90
2022-08-17T00:51:26.766Z,14.60
2022-08-17T00:51:36.819Z,15.30
2022-08-17T00:51:46.878Z,15.70
2022-08-17T00:51:56.927Z,16.30
2022-08-17T00:52:10.827Z,16.40
2022-08-17T00:52:17.025Z,16.20
2022-08-17T00:52:27.077Z,16.20
2022-08-17T00:52:37.128Z,15.90
2022-08-17T00:52:47.176Z,16.00
2022-08-17T00:52:57.219Z,15.80
2022-08-17T00:53:07.272Z,16.00
2022-08-17T00:53:17.318Z,16.70
2022-08-17T00:53:27.358Z,16.70
2022-08-17T00:53:37.410Z,16.70
2022-08-17T00:53:47.447Z,16.00
2022-08-17T00:53:57.508Z,16.10
2022-08-17T00:54:07.555Z,15.80
2022-08-17T00:54:17.609Z,15.70
2022-08-17T00:54:27.696Z,15.60
2022-08-17T00:54:41.976Z,15.60
2022-08-17T00:54:47.729Z,15.80
2022-08-17T00:54:57.788Z,15.70
2022-08-17T00:55:07.839Z,15.40
2022-08-17T00:55:17.888Z,15.40
2022-08-17T00:55:27.947Z,15.40
2022-08-17T00:55:37.988Z,15.80
2022-08-17T00:55:48.049Z,16.00
2022-08-17T00:55:58.098Z,16.20
2022-08-17T00:56:08.189Z,16.20
2022-08-17T00:56:18.248Z,15.80
2022-08-17T00:56:28.318Z,15.40
2022-08-17T00:56:38.378Z,15.50
2022-08-17T00:56:48.447Z,15.50
2022-08-17T00:56:58.499Z,15.90
2022-08-17T00:57:08.567Z,16.20
2022-08-17T00:57:18.618Z,16.20
2022-08-17T00:57:28.675Z,16.40
2022-08-17T00:57:38.719Z,15.80
2022-08-17T00:57:53.382Z,16.20
2022-08-17T00:57:59.727Z,15.70
2022-08-17T00:58:09.787Z,16.10
2022-08-17T00:58:19.839Z,16.30
2022-08-17T00:58:36.068Z,16.80
2022-08-17T00:58:41.749Z,17.20
2022-08-17T00:58:51.797Z,16.80
2022-08-17T00:59:01.858Z,16.80
2022-08-17T00:59:11.918Z,16.10
2022-08-17T00:59:21.978Z,16.00
2022-08-17T00:59:32.048Z,15.70
2022-08-17T00:59:42.148Z,15.80
2022-08-17T01:00:01.909Z,16.40
2022-08-17T01:00:03.918Z,16.10
2022-08-17T01:00:13.389Z,16.00
2022-08-17T01:00:23.436Z,15.80
2022-08-17T01:00:33.478Z,15.90
2022-08-17T01:00:43.562Z,16.30
2022-08-17T01:00:53.687Z,16.20
2022-08-17T01:01:03.811Z,16.30
2022-08-17T01:01:21.989Z,15.50
2022-08-17T01:01:24.922Z,15.90
2022-08-17T01:01:34.984Z,15.90
2022-08-17T01:01:45.037Z,16.00
2022-08-17T01:01:55.088Z,15.70
2022-08-17T01:02:05.139Z,15.80
2022-08-17T01:02:15.178Z,15.90
2022-08-17T01:02:25.228Z,15.90
2022-08-17T01:02:42.222Z,15.60
2022-08-17T01:02:46.230Z,15.60
2022-08-17T01:02:56.403Z,16.20
2022-08-17T01:03:06.279Z,16.00
2022-08-17T01:03:16.310Z,16.30
2022-08-17T01:03:26.361Z,16.00
2022-08-17T01:03:36.411Z,16.40
2022-08-17T01:03:46.461Z,16.10
2022-08-17T01:03:57.041Z,16.00
2022-08-17T01:04:06.498Z,15.50
2022-08-17T01:04:16.557Z,15.50
2022-08-17T01:04:26.609Z,15.70
2022-08-17T01:04:36.670Z,16.00
2022-08-17T01:04:46.708Z,16.00
2022-08-17T01:04:56.777Z,15.70
2022-08-17T01:05:06.815Z,15.30
2022-08-17T01:05:18.451Z,15.40
2022-08-17T01:05:27.027Z,15.90
2022-08-17T01:05:37.168Z,16.10
2022-08-17T01:05:47.226Z,16.20
2022-08-17T01:05:57.278Z,16.00
2022-08-17T01:06:07.315Z,16.10
2022-08-17T01:06:17.389Z,16.10
2022-08-17T01:06:27.466Z,15.20
2022-08-17T01:06:37.529Z,16.20
2022-08-17T01:06:47.647Z,16.00
2022-08-17T01:06:57.689Z,17.10
2022-08-17T01:07:07.738Z,16.70
2022-08-17T01:07:17.788Z,16.90
2022-08-17T01:07:27.839Z,15.70
2022-08-17T01:07:38.064Z,15.50
2022-08-17T01:07:48.027Z,15.30
2022-08-17T01:07:58.078Z,15.50
2022-08-17T01:08:08.127Z,15.20
2022-08-17T01:08:18.169Z,15.50
2022-08-17T01:08:28.239Z,15.80
2022-08-17T01:08:38.288Z,15.10
2022-08-17T01:08:48.346Z,15.20
2022-08-17T01:08:59.301Z,15.40
2022-08-17T01:09:09.349Z,15.80
2022-08-17T01:09:19.401Z,15.90
2022-08-17T01:09:29.460Z,15.90
2022-08-17T01:09:39.509Z,16.00
2022-08-17T01:09:49.558Z,15.40
2022-08-17T01:09:59.608Z,15.60
2022-08-17T01:10:57.328Z,16.00
2022-08-17T01:10:58.268Z,16.10
2022-08-17T01:10:58.522Z,15.80
2022-08-17T01:10:58.556Z,15.90
2022-08-17T01:10:59.176Z,16.20
2022-08-17T01:11:04.440Z,16.00
2022-08-17T01:11:14.508Z,15.90
2022-08-17T01:11:24.559Z,15.60
2022-08-17T01:11:34.616Z,16.10
2022-08-17T01:11:44.660Z,16.40
2022-08-17T01:11:54.723Z,16.50
2022-08-17T01:12:04.796Z,16.50
2022-08-17T01:12:14.889Z,15.90
2022-08-17T01:12:24.947Z,16.40
2022-08-17T01:12:35.029Z,16.10
2022-08-17T01:12:45.079Z,16.60
2022-08-17T01:12:55.127Z,16.20
2022-08-17T01:13:05.177Z,15.50
2022-08-17T01:13:15.235Z,15.50
2022-08-17T01:13:25.279Z,15.10
2022-08-17T01:13:40.346Z,15.70
2022-08-17T01:13:45.501Z,15.40
2022-08-17T01:13:55.559Z,15.80
2022-08-17T01:14:05.607Z,16.00
2022-08-17T01:14:15.660Z,16.10
2022-08-17T01:14:25.708Z,16.30
2022-08-17T01:14:35.769Z,16.40
2022-08-17T01:14:45.829Z,16.80
2022-08-17T01:14:55.886Z,16.70
2022-08-17T01:15:05.937Z,16.20
2022-08-17T01:15:15.989Z,15.60
2022-08-17T01:15:26.039Z,15.60
2022-08-17T01:15:36.095Z,15.90
2022-08-17T01:15:46.396Z,16.30
2022-08-17T01:15:56.281Z,16.40
2022-08-17T01:16:06.349Z,16.60
2022-08-17T01:16:16.399Z,16.20
2022-08-17T01:16:26.452Z,15.90
2022-08-17T01:16:36.508Z,16.10
2022-08-17T01:16:46.556Z,16.00
2022-08-17T01:16:56.608Z,16.10
2022-08-17T01:17:06.669Z,16.00
2022-08-17T01:17:16.732Z,16.60
2022-08-17T01:17:26.779Z,16.60
2022-08-17T01:17:36.848Z,16.50
2022-08-17T01:17:46.898Z,16.10
2022-08-17T01:17:56.954Z,15.90
2022-08-17T01:18:07.008Z,16.10
2022-08-17T01:18:17.079Z,16.00
2022-08-17T01:18:27.123Z,15.80
2022-08-17T01:18:37.198Z,15.60
2022-08-17T01:18:47.253Z,15.60
2022-08-17T01:18:57.341Z,16.10
2022-08-17T01:19:07.398Z,15.40
2022-08-17T01:19:17.436Z,15.10
2022-08-17T01:19:27.489Z,14.60
2022-08-17T01:19:37.545Z,15.70
2022-08-17T01:19:47.578Z,15.80
2022-08-17T01:19:57.638Z,15.90
2022-08-17T01:20:07.692Z,15.60
2022-08-17T01:20:17.747Z,15.60
2022-08-17T01:20:27.799Z,15.40
2022-08-17T01:20:41.894Z,15.40
2022-08-17T01:20:48.996Z,15.30
2022-08-17T01:20:58.869Z,15.10
2022-08-17T01:21:08.920Z,15.50
2022-08-17T01:21:18.989Z,15.70
2022-08-17T01:21:29.039Z,16.20
2022-08-17T01:21:39.070Z,15.70
2022-08-17T01:21:49.128Z,15.50
2022-08-17T01:21:59.170Z,15.10
2022-08-17T01:22:09.277Z,15.00
2022-08-17T01:22:19.320Z,15.10
2022-08-17T01:22:29.360Z,15.50
2022-08-17T01:22:39.399Z,15.60
2022-08-17T01:22:49.641Z,15.70
2022-08-17T01:22:59.569Z,15.90
2022-08-17T01:23:09.648Z,15.80
2022-08-17T01:23:20.614Z,15.70
2022-08-17T01:23:29.778Z,15.40
2022-08-17T01:23:39.829Z,15.70
2022-08-17T01:23:49.869Z,15.90
2022-08-17T01:23:59.919Z,16.40
2022-08-17T01:24:09.966Z,15.90
2022-08-17T01:24:20.018Z,16.20
2022-08-17T01:24:30.060Z,15.50
2022-08-17T01:24:40.120Z,15.90
2022-08-17T01:24:50.178Z,16.10
2022-08-17T01:25:00.228Z,16.40
2022-08-17T01:25:10.260Z,16.30
2022-08-17T01:25:20.309Z,16.10
2022-08-17T01:25:30.349Z,16.40
2022-08-17T01:25:40.406Z,16.10
2022-08-17T01:25:50.468Z,15.60
2022-08-17T01:26:00.518Z,15.40
2022-08-17T01:26:10.568Z,15.90
2022-08-17T01:26:20.647Z,15.60
2022-08-17T01:26:30.689Z,15.50
2022-08-17T01:26:40.746Z,15.30
2022-08-17T01:26:50.789Z,15.70
2022-08-17T01:27:00.837Z,15.90
2022-08-17T01:27:10.923Z,15.80
2022-08-17T01:27:20.937Z,15.20
2022-08-17T01:27:30.980Z,15.10
2022-08-17T01:27:41.028Z,14.60
2022-08-17T01:27:51.078Z,14.40
2022-08-17T01:28:01.127Z,14.40
2022-08-17T01:28:11.187Z,14.80
2022-08-17T01:28:33.440Z,15.20
2022-08-17T01:28:52.799Z,14.90
2022-08-17T01:28:53.811Z,14.90
2022-08-17T01:28:55.890Z,15.20
2022-08-17T01:29:05.059Z,16.00
2022-08-17T01:29:15.107Z,15.80
2022-08-17T01:29:25.159Z,15.80
2022-08-17T01:29:35.199Z,14.90
2022-08-17T01:29:45.271Z,14.80
2022-08-17T01:29:55.328Z,15.10
2022-08-17T01:30:05.381Z,15.60
2022-08-17T01:30:56.790Z,15.50
2022-08-17T01:30:57.420Z,14.30
2022-08-17T01:30:57.718Z,14.80
2022-08-17T01:30:59.034Z,14.20
2022-08-17T01:31:00.160Z,14.80
2022-08-17T01:31:10.209Z,14.90
2022-08-17T01:31:20.250Z,15.20
2022-08-17T01:31:30.337Z,14.90
2022-08-17T01:31:40.389Z,15.50
2022-08-17T01:31:50.439Z,15.60
2022-08-17T01:32:00.480Z,14.90
2022-08-17T01:32:10.530Z,14.80
2022-08-17T01:32:20.559Z,14.80
2022-08-17T01:32:30.618Z,15.20
2022-08-17T01:32:40.662Z,14.70
2022-08-17T01:32:50.841Z,14.50
2022-08-17T01:33:00.885Z,14.50
2022-08-17T01:33:10.917Z,14.80
2022-08-17T01:33:20.958Z,14.90
2022-08-17T01:33:31.072Z,15.10
2022-08-17T01:33:41.120Z,14.90
2022-08-17T01:33:51.179Z,14.50
2022-08-17T01:34:01.861Z,14.60
2022-08-17T01:34:11.298Z,14.50
2022-08-17T01:34:21.329Z,14.30
2022-08-17T01:34:36.875Z,14.10
2022-08-17T01:34:43.372Z,14.80
2022-08-17T01:34:52.450Z,15.00
2022-08-17T01:35:02.526Z,15.40
2022-08-17T01:35:12.561Z,15.20
2022-08-17T01:35:22.609Z,15.60
2022-08-17T01:35:32.646Z,15.20
2022-08-17T01:35:42.699Z,15.00
2022-08-17T01:35:52.750Z,14.30
2022-08-17T01:36:02.739Z,14.90
2022-08-17T01:36:12.789Z,14.80
2022-08-17T01:36:22.850Z,14.70
2022-08-17T01:36:32.889Z,15.00
2022-08-17T01:36:42.931Z,15.00
2022-08-17T01:36:52.977Z,15.00
2022-08-17T01:37:03.009Z,14.60
2022-08-17T01:37:13.057Z,14.50
2022-08-17T01:37:23.101Z,15.20
2022-08-17T01:37:33.150Z,15.20
2022-08-17T01:37:43.213Z,15.60
2022-08-17T01:37:53.253Z,15.00
2022-08-17T01:38:03.299Z,14.40
2022-08-17T01:38:13.357Z,13.80
2022-08-17T01:38:26.485Z,14.00
2022-08-17T01:38:33.530Z,14.70
2022-08-17T01:38:43.593Z,15.20
2022-08-17T01:38:53.636Z,15.00
2022-08-17T01:39:03.669Z,15.00
2022-08-17T01:39:13.707Z,14.90
2022-08-17T01:39:23.825Z,15.40
2022-08-17T01:39:33.843Z,15.40
2022-08-17T01:39:43.918Z,15.60
2022-08-17T01:39:54.021Z,15.80
2022-08-17T01:40:03.996Z,15.20
2022-08-17T01:40:14.109Z,15.00
2022-08-17T01:40:24.169Z,14.50
2022-08-17T01:40:34.223Z,14.80
2022-08-17T01:40:44.269Z,14.50
2022-08-17T01:40:57.610Z,14.60
2022-08-17T01:41:04.459Z,14.30
2022-08-17T01:41:14.520Z,14.30
2022-08-17T01:41:24.591Z,14.40
2022-08-17T01:41:34.640Z,14.40
2022-08-17T01:41:44.670Z,14.70
2022-08-17T01:41:54.738Z,14.70
2022-08-17T01:42:04.801Z,15.30
2022-08-17T01:42:14.849Z,15.40
2022-08-17T01:42:24.913Z,15.50
2022-08-17T01:42:34.970Z,15.00
2022-08-17T01:42:45.009Z,14.40
2022-08-17T01:42:55.078Z,14.40
2022-08-17T01:43:05.120Z,14.60
2022-08-17T01:43:15.181Z,15.50
2022-08-17T01:43:25.220Z,15.10
2022-08-17T01:43:35.280Z,14.90
2022-08-17T01:43:45.330Z,14.70
2022-08-17T01:43:55.382Z,14.90
2022-08-17T01:44:05.434Z,15.20
2022-08-17T01:44:15.492Z,15.30
2022-08-17T01:44:25.541Z,15.90
2022-08-17T01:44:35.791Z,15.50
2022-08-17T01:44:45.827Z,15.40
2022-08-17T01:44:55.873Z,15.40
2022-08-17T01:45:05.932Z,15.60
2022-08-17T01:45:15.999Z,15.40
2022-08-17T01:45:26.092Z,15.20
2022-08-17T01:45:36.180Z,15.00
2022-08-17T01:45:46.271Z,15.80
2022-08-17T01:46:03.564Z,15.30
2022-08-17T01:46:07.319Z,15.80
2022-08-17T01:46:17.397Z,15.20
2022-08-17T01:46:27.489Z,15.30
2022-08-17T01:46:37.570Z,15.30
2022-08-17T01:46:47.667Z,15.40
2022-08-17T01:46:57.748Z,15.80
2022-08-17T01:47:07.810Z,16.10
2022-08-17T01:47:17.891Z,15.90
2022-08-17T01:47:27.961Z,15.60
2022-08-17T01:47:37.978Z,15.40
2022-08-17T01:47:48.050Z,15.70
2022-08-17T01:47:58.121Z,15.30
2022-08-17T01:48:08.201Z,15.20
2022-08-17T01:48:18.281Z,15.40
2022-08-17T01:48:28.361Z,15.80
2022-08-17T01:48:38.441Z,15.70
2022-08-17T01:48:48.530Z,15.60
2022-08-17T01:48:58.658Z,15.50
2022-08-17T01:49:08.755Z,15.70
2022-08-17T01:49:18.832Z,16.30
2022-08-17T01:49:28.919Z,16.40
2022-08-17T01:49:38.987Z,15.80
2022-08-17T01:49:49.090Z,15.60
2022-08-17T01:49:59.168Z,15.90
2022-08-17T01:50:09.281Z,16.30
2022-08-17T01:50:19.358Z,16.00
2022-08-17T01:50:29.441Z,16.30
2022-08-17T01:50:39.520Z,16.60
2022-08-17T01:50:49.609Z,16.70
2022-08-17T01:50:59.688Z,16.20
2022-08-17T01:51:09.771Z,16.70
2022-08-17T01:51:19.851Z,17.00
2022-08-17T01:51:29.950Z,17.20
2022-08-17T01:51:40.021Z,16.60
2022-08-17T01:51:50.103Z,16.70
2022-08-17T01:52:00.181Z,16.30
2022-08-17T01:52:10.309Z,16.40
2022-08-17T01:52:20.379Z,16.30
2022-08-17T01:52:30.468Z,16.50
2022-08-17T01:52:40.537Z,16.90
2022-08-17T01:52:50.754Z,16.80
2022-08-17T01:53:00.769Z,16.80
2022-08-17T01:53:10.852Z,16.80
2022-08-17T01:53:20.931Z,16.20
2022-08-17T01:53:31.021Z,16.40
2022-08-17T01:53:41.108Z,15.70
2022-08-17T01:53:51.208Z,16.80
2022-08-17T01:54:01.289Z,16.30
2022-08-17T01:54:11.361Z,16.50
2022-08-17T01:54:21.441Z,16.40
2022-08-17T01:54:31.430Z,16.90
2022-08-17T01:54:41.512Z,17.20
2022-08-17T01:54:51.598Z,17.10
2022-08-17T01:55:01.693Z,16.60
2022-08-17T01:55:11.768Z,17.00
2022-08-17T01:55:27.123Z,16.50
2022-08-17T01:55:32.799Z,17.00
2022-08-17T01:55:42.910Z,16.70
2022-08-17T01:55:52.979Z,16.90
2022-08-17T01:56:03.049Z,16.80
2022-08-17T01:56:13.142Z,16.60
2022-08-17T01:56:23.230Z,16.80
2022-08-17T01:56:33.330Z,16.80
2022-08-17T01:56:43.407Z,17.30
2022-08-17T01:56:53.419Z,17.00
2022-08-17T01:57:03.501Z,16.90
2022-08-17T01:57:13.582Z,16.10
2022-08-17T01:57:23.670Z,15.90
2022-08-17T01:57:33.739Z,16.00
2022-08-17T01:57:43.850Z,16.40
2022-08-17T01:57:53.921Z,16.70
2022-08-17T01:58:03.980Z,16.60
2022-08-17T01:58:14.051Z,16.80
2022-08-17T01:58:24.130Z,17.10
2022-08-17T01:58:34.119Z,17.50
2022-08-17T01:58:44.208Z,17.20
2022-08-17T01:58:54.290Z,17.00
2022-08-17T01:59:04.351Z,16.70
2022-08-17T01:59:14.430Z,16.90
2022-08-17T01:59:24.691Z,16.60
2022-08-17T01:59:34.761Z,16.20
2022-08-17T01:59:44.841Z,16.50
2022-08-17T01:59:54.910Z,16.10
2022-08-17T02:00:04.989Z,16.30
2022-08-17T02:00:15.063Z,16.10
2022-08-17T02:00:25.125Z,16.60
2022-08-17T02:00:59.735Z,16.80
2022-08-17T02:01:00.159Z,16.50
2022-08-17T02:01:00.574Z,16.80
2022-08-17T02:01:07.249Z,16.60
2022-08-17T02:01:17.207Z,16.50
2022-08-17T02:01:27.348Z,17.30
2022-08-17T02:01:37.318Z,17.20
2022-08-17T02:01:47.472Z,17.10
2022-08-17T02:01:57.616Z,15.60
2022-08-17T02:02:07.539Z,16.00
2022-08-17T02:02:30.774Z,16.00
2022-08-17T02:02:30.934Z,16.30
2022-08-17T02:02:38.558Z,16.20
2022-08-17T02:02:48.726Z,16.20
2022-08-17T02:02:58.740Z,17.00
2022-08-17T02:03:08.820Z,17.00
2022-08-17T02:03:18.897Z,16.70
2022-08-17T02:03:28.973Z,16.00
2022-08-17T02:03:39.051Z,16.30
2022-08-17T02:03:59.263Z,16.80
2022-08-17T02:04:01.063Z,17.50
2022-08-17T02:04:10.184Z,17.50
2022-08-17T02:04:20.257Z,17.10
2022-08-17T02:04:30.341Z,17.00
2022-08-17T02:04:40.411Z,17.30
2022-08-17T02:04:50.513Z,17.10
2022-08-17T02:05:00.581Z,17.00
2022-08-17T02:05:10.661Z,16.80
2022-08-17T02:05:20.730Z,17.10
2022-08-17T02:05:30.811Z,16.70
2022-08-17T02:05:40.891Z,16.10
2022-08-17T02:05:50.971Z,15.80
2022-08-17T02:06:01.051Z,16.30
2022-08-17T02:06:27.211Z,16.40
2022-08-17T02:06:27.301Z,16.40
2022-08-17T02:06:45.365Z,16.40
2022-08-17T02:06:52.475Z,16.30
2022-08-17T02:06:54.883Z,16.40
2022-08-17T02:07:04.959Z,16.00
2022-08-17T02:07:15.032Z,15.80
2022-08-17T02:07:27.081Z,15.90
2022-08-17T02:07:59.548Z,16.10
2022-08-17T02:07:59.688Z,15.80
2022-08-17T02:07:59.919Z,15.80
2022-08-17T02:08:07.070Z,16.10
2022-08-17T02:08:20.124Z,15.90
2022-08-17T02:08:37.359Z,16.30
2022-08-17T02:08:44.538Z,16.40
2022-08-17T02:09:02.614Z,16.10
2022-08-17T02:09:02.870Z,16.30
2022-08-17T02:09:16.558Z,16.00
2022-08-17T02:09:23.294Z,16.30
2022-08-17T02:09:31.121Z,15.90
2022-08-17T02:09:41.231Z,15.80
2022-08-17T02:09:52.748Z,15.40
2022-08-17T02:10:01.390Z,15.30
2022-08-17T02:10:20.258Z,15.30
2022-08-17T02:10:22.541Z,15.10
2022-08-17T02:10:34.013Z,15.10
2022-08-17T02:10:46.880Z,15.20
2022-08-17T02:10:52.765Z,15.70